Time;durP1;ratioP1;P1;durP2;ratioP2;P2;SDS_P1;SDS_P2;PMS_P1;PMS_P2;Temp;Humidity;BMP_temperature;BMP_pressure;BME280_temperature;BME280_humidity;BME280_pressure;Samples;Min_cycle;Max_cycle;Signal;HPM_P1;HPM_P2
2022/12/22 03:26:45;;;;;;;1.58;1.20;;;10.30;99.90;;;;;;6126838;23;20243;-78
2022/12/22 03:29:12;;;;;;;1.30;1.20;;;10.20;99.90;;;;;;6142571;23;20549;-78
2022/12/22 03:31:39;;;;;;;1.45;1.05;;;10.20;99.90;;;;;;6136845;23;20268;-78
2022/12/22 03:34:07;;;;;;;1.40;1.30;;;10.20;99.90;;;;;;6139498;23;20187;-78
2022/12/22 03:36:35;;;;;;;1.40;1.30;;;10.20;99.90;;;;;;6139516;23;20199;-78
2022/12/22 03:39:02;;;;;;;1.88;1.02;;;10.10;99.90;;;;;;6155303;23;20201;-77
2022/12/22 03:46:58;;;;;;;1.30;1.20;;;10.00;99.90;;;;;;6121265;23;20202;-77
2022/12/22 03:49:27;;;;;;;1.55;1.00;;;10.10;99.90;;;;;;6139132;23;20195;-78
2022/12/22 03:51:54;;;;;;;1.95;1.23;;;10.10;99.90;;;;;;6130256;23;20198;-78
2022/12/22 03:54:23;;;;;;;1.75;1.30;;;10.10;99.90;;;;;;6148299;23;20362;-77
2022/12/22 03:56:51;;;;;;;1.60;1.50;;;10.00;99.90;;;;;;6134977;23;20237;-78
2022/12/22 03:59:19;;;;;;;0.85;0.85;;;10.10;99.90;;;;;;6127501;23;20226;-77
2022/12/22 04:01:49;;;;;;;1.23;1.00;;;10.10;99.90;;;;;;6172489;23;20385;-78
2022/12/22 04:04:17;;;;;;;6.35;1.30;;;10.10;99.90;;;;;;6121940;23;20233;-77
2022/12/22 04:06:47;;;;;;;1.48;1.27;;;10.10;99.90;;;;;;6123644;23;20658;-77
2022/12/22 04:09:14;;;;;;;1.92;1.10;;;10.10;99.90;;;;;;6143524;23;20194;-78
2022/12/22 04:14:26;;;;;;;1.13;1.00;;;10.10;99.90;;;;;;6138448;23;20263;-78
2022/12/22 04:16:53;;;;;;;1.13;1.05;;;10.10;99.90;;;;;;6143739;23;20207;-76
2022/12/22 04:19:21;;;;;;;1.13;0.95;;;10.10;99.90;;;;;;6139786;23;20198;-77
2022/12/22 04:21:50;;;;;;;1.10;1.00;;;10.20;99.90;;;;;;6129614;23;20204;-77
2022/12/22 04:24:17;;;;;;;1.85;1.30;;;10.20;99.90;;;;;;6129293;23;20219;-77
2022/12/22 04:26:44;;;;;;;1.13;0.90;;;10.30;99.90;;;;;;6127647;23;20206;-77
2022/12/22 04:29:11;;;;;;;1.27;1.00;;;10.30;99.90;;;;;;6128492;23;20226;-77
2022/12/22 04:31:38;;;;;;;3.00;1.00;;;10.30;99.90;;;;;;6127781;23;20246;-77
2022/12/22 04:34:05;;;;;;;1.90;1.10;;;10.40;99.90;;;;;;6132282;23;20222;-77
2022/12/22 04:36:33;;;;;;;1.50;0.80;;;10.30;99.90;;;;;;6139364;23;20227;-77
2022/12/22 04:39:01;;;;;;;1.20;0.90;;;10.30;99.90;;;;;;6135958;23;20197;-78
2022/12/22 04:41:28;;;;;;;1.95;1.00;;;10.30;99.90;;;;;;6135106;23;20211;-77
2022/12/22 04:43:55;;;;;;;1.23;1.13;;;10.20;99.90;;;;;;6131341;23;20274;-78
2022/12/22 04:46:23;;;;;;;1.27;0.90;;;10.20;99.90;;;;;;6118053;23;20194;-78
2022/12/22 04:48:50;;;;;;;1.73;1.30;;;10.10;99.90;;;;;;6117824;23;20265;-78
2022/12/22 04:51:17;;;;;;;3.97;1.42;;;10.10;99.90;;;;;;6125432;23;20219;-78
2022/12/22 04:53:44;;;;;;;1.95;1.00;;;10.10;99.90;;;;;;6122093;23;20710;-78
2022/12/22 04:56:13;;;;;;;2.20;1.42;;;10.00;99.90;;;;;;6119277;23;20198;-78
2022/12/22 04:58:40;;;;;;;3.00;1.10;;;10.00;99.90;;;;;;6113825;23;20202;-78
2022/12/22 05:01:12;;;;;;;1.50;1.00;;;9.90;99.90;;;;;;6130742;23;20194;-78
2022/12/22 05:03:39;;;;;;;1.45;1.02;;;9.90;99.90;;;;;;6112391;23;20227;-77
2022/12/22 05:06:08;;;;;;;1.65;1.08;;;9.90;99.90;;;;;;6119085;23;20195;-78
2022/12/22 05:08:35;;;;;;;1.40;1.10;;;9.90;99.90;;;;;;6125621;23;20248;-78
2022/12/22 05:11:02;;;;;;;1.55;1.02;;;9.90;99.90;;;;;;6101613;23;20215;-78
2022/12/22 05:13:31;;;;;;;1.35;1.17;;;9.90;99.90;;;;;;6119460;23;20297;-78
2022/12/22 05:16:04;;;;;;;1.70;1.15;;;9.90;99.90;;;;;;6126981;23;20289;-78
2022/12/22 05:18:32;;;;;;;1.90;1.00;;;9.80;99.90;;;;;;6119693;23;20328;-78
2022/12/22 05:21:01;;;;;;;1.45;1.00;;;9.80;99.90;;;;;;6118245;23;20199;-78
2022/12/22 05:23:28;;;;;;;1.27;0.90;;;9.80;99.90;;;;;;6118647;23;20260;-78
2022/12/22 05:25:55;;;;;;;3.50;1.20;;;9.80;99.90;;;;;;6122056;23;20624;-78
2022/12/22 05:28:22;;;;;;;1.20;1.02;;;9.80;99.90;;;;;;6119739;23;20192;-78
2022/12/22 05:30:51;;;;;;;1.23;1.10;;;9.90;99.90;;;;;;6119627;23;20246;-78
2022/12/22 05:33:18;;;;;;;3.85;1.05;;;10.00;99.90;;;;;;6126425;23;20187;-78
2022/12/22 05:35:45;;;;;;;3.40;1.30;;;10.10;99.90;;;;;;6123346;23;20274;-78
2022/12/22 05:38:12;;;;;;;1.40;1.10;;;10.10;99.90;;;;;;6117691;23;20195;-78
2022/12/22 05:40:39;;;;;;;3.25;1.27;;;10.10;99.90;;;;;;6117292;23;20211;-78
2022/12/22 05:43:06;;;;;;;2.75;1.30;;;10.10;99.90;;;;;;6122916;23;20713;-78
2022/12/22 05:45:33;;;;;;;1.58;1.00;;;10.10;99.90;;;;;;6133440;23;20248;-78
2022/12/22 05:48:02;;;;;;;3.13;1.20;;;10.20;99.90;;;;;;6119693;23;20278;-78
2022/12/22 05:50:30;;;;;;;4.50;1.33;;;10.30;99.90;;;;;;6118882;23;20216;-78
2022/12/22 05:52:57;;;;;;;2.08;1.17;;;10.30;99.90;;;;;;6118605;23;20248;-78
2022/12/22 05:55:24;;;;;;;4.57;1.65;;;10.40;99.90;;;;;;6130772;23;20584;-78
2022/12/22 05:57:52;;;;;;;1.50;1.00;;;10.40;99.90;;;;;;6128782;23;20191;-78
2022/12/22 06:00:20;;;;;;;1.95;0.98;;;10.40;99.90;;;;;;6124324;23;20282;-78
2022/12/22 06:02:47;;;;;;;3.08;1.20;;;10.40;99.90;;;;;;6119980;23;20198;-78
2022/12/22 06:05:15;;;;;;;2.75;1.10;;;10.40;99.90;;;;;;6120175;23;20198;-78
2022/12/22 06:07:43;;;;;;;2.00;0.93;;;10.40;99.90;;;;;;6120407;23;20331;-78
2022/12/22 06:10:11;;;;;;;1.30;1.20;;;10.40;99.90;;;;;;6122156;23;20306;-78
2022/12/22 06:12:38;;;;;;;1.05;0.90;;;10.40;99.90;;;;;;6121994;23;20191;-78
2022/12/22 06:15:07;;;;;;;2.70;1.20;;;10.40;99.90;;;;;;6121462;23;20211;-78
2022/12/22 06:17:34;;;;;;;3.03;1.42;;;10.40;99.90;;;;;;6169085;23;20210;-78
2022/12/22 06:20:02;;;;;;;2.63;1.10;;;10.30;99.90;;;;;;6119865;23;20664;-78
2022/12/22 06:22:30;;;;;;;2.95;1.15;;;10.30;99.90;;;;;;6121607;23;20191;-78
2022/12/22 06:24:58;;;;;;;2.63;1.02;;;10.20;99.90;;;;;;6120592;23;20278;-78
2022/12/22 06:27:25;;;;;;;2.40;1.20;;;10.20;99.90;;;;;;6122009;23;20199;-78
2022/12/22 06:29:52;;;;;;;3.25;1.45;;;10.20;99.90;;;;;;6122365;23;20253;-78
2022/12/22 06:32:19;;;;;;;3.45;1.30;;;10.20;99.90;;;;;;6142653;23;20250;-78
2022/12/22 06:34:46;;;;;;;3.70;1.50;;;10.30;99.90;;;;;;6124375;23;20191;-78
2022/12/22 06:37:13;;;;;;;3.25;1.20;;;10.30;99.90;;;;;;6152269;23;20194;-78
2022/12/22 06:39:42;;;;;;;2.25;1.30;;;10.30;99.90;;;;;;6130324;23;20734;-78
2022/12/22 06:44:55;;;;;;;3.75;1.63;;;10.40;99.90;;;;;;6130358;23;20262;-79
2022/12/22 06:47:22;;;;;;;4.05;1.35;;;10.50;99.90;;;;;;6110578;23;20258;-85
2022/12/22 06:49:50;;;;;;;4.70;1.63;;;10.50;99.90;;;;;;6114200;23;20223;-76
2022/12/22 06:52:17;;;;;;;4.85;1.50;;;10.60;99.90;;;;;;6123651;23;20303;-75
2022/12/22 06:54:50;;;;;;;3.40;1.50;;;10.70;99.90;;;;;;6127990;23;20207;-75
2022/12/22 06:57:18;;;;;;;3.63;1.75;;;10.70;99.90;;;;;;6113818;23;20590;-76
2022/12/22 06:59:45;;;;;;;3.55;1.50;;;10.70;99.90;;;;;;6114969;23;20243;-75
2022/12/22 07:02:12;;;;;;;4.70;1.38;;;10.80;99.90;;;;;;6169996;23;20713;-75
2022/12/22 07:04:41;;;;;;;4.15;1.63;;;10.90;99.90;;;;;;6120642;23;20183;-75
2022/12/22 07:07:08;;;;;;;5.72;1.80;;;10.90;99.90;;;;;;6120390;23;20274;-76
2022/12/22 07:09:34;;;;;;;3.90;1.70;;;11.00;99.90;;;;;;6121639;23;20313;-75
2022/12/22 07:12:03;;;;;;;3.72;1.58;;;11.00;99.90;;;;;;6121815;23;20298;-75
2022/12/22 07:14:30;;;;;;;4.38;2.05;;;11.00;99.90;;;;;;6123766;23;20607;-75
2022/12/22 07:16:57;;;;;;;5.63;1.30;;;11.10;99.90;;;;;;6119180;23;20282;-75
2022/12/22 07:19:25;;;;;;;4.90;1.75;;;11.10;99.90;;;;;;6149795;23;20583;-75
2022/12/22 07:21:52;;;;;;;5.05;2.03;;;11.20;99.90;;;;;;6136261;23;20222;-75
2022/12/22 07:24:23;;;;;;;4.10;1.50;;;11.10;99.90;;;;;;6156912;23;20302;-74
2022/12/22 07:26:51;;;;;;;3.70;1.80;;;11.10;99.90;;;;;;6091715;23;20246;-74
2022/12/22 07:29:20;;;;;;;3.63;1.55;;;11.00;99.90;;;;;;6140920;23;20212;-74
2022/12/22 07:31:48;;;;;;;4.85;1.90;;;10.90;99.90;;;;;;6145335;23;20215;-75
2022/12/22 07:34:15;;;;;;;4.10;1.60;;;10.90;99.90;;;;;;6131745;23;20195;-80
2022/12/22 07:36:42;;;;;;;6.07;1.77;;;10.90;99.90;;;;;;6117197;23;20195;-74
2022/12/22 07:39:13;;;;;;;4.55;1.98;;;10.90;99.90;;;;;;6111500;23;20706;-75
2022/12/22 07:44:27;;;;;;;4.30;1.65;;;10.90;99.90;;;;;;6119506;23;20199;-74
2022/12/22 07:46:55;;;;;;;5.07;1.85;;;10.90;99.90;;;;;;6111631;23;20199;-74
2022/12/22 07:52:07;;;;;;;3.40;1.60;;;11.00;99.90;;;;;;6120090;23;20302;-74
2022/12/22 07:54:35;;;;;;;4.00;1.50;;;11.00;99.90;;;;;;6119317;23;20225;-75
2022/12/22 07:57:02;;;;;;;4.28;1.50;;;11.00;99.90;;;;;;6116992;23;20188;-75
2022/12/22 07:59:32;;;;;;;5.78;1.50;;;11.10;99.90;;;;;;6118421;23;20266;-75
2022/12/22 08:01:59;;;;;;;4.32;1.40;;;11.10;99.90;;;;;;6116143;23;20204;-74
2022/12/22 08:04:27;;;;;;;5.78;1.83;;;11.10;99.90;;;;;;6119173;23;20202;-74
2022/12/22 08:06:54;;;;;;;3.03;1.92;;;11.10;99.90;;;;;;6115519;23;20250;-74
2022/12/22 08:09:22;;;;;;;5.68;1.45;;;11.10;99.90;;;;;;6117599;23;20655;-74
2022/12/22 08:11:50;;;;;;;5.20;2.05;;;11.10;99.90;;;;;;6114918;23;20300;-75
2022/12/22 08:14:17;;;;;;;4.60;1.90;;;11.10;99.90;;;;;;6121047;23;20190;-74
2022/12/22 08:16:46;;;;;;;3.25;1.52;;;11.10;99.90;;;;;;6118221;23;20206;-74
2022/12/22 08:19:13;;;;;;;2.60;1.50;;;11.10;99.90;;;;;;6120856;23;20211;-74
2022/12/22 08:21:40;;;;;;;4.40;1.48;;;11.20;99.90;;;;;;6117458;23;20187;-74
2022/12/22 08:24:08;;;;;;;2.67;1.30;;;11.20;99.90;;;;;;6122684;23;20649;-74
2022/12/22 08:26:38;;;;;;;3.40;1.45;;;11.30;99.90;;;;;;6119794;23;20191;-82
2022/12/22 08:29:10;;;;;;;2.97;1.15;;;11.30;99.90;;;;;;6117494;23;20244;-74
2022/12/22 08:31:38;;;;;;;4.18;1.40;;;11.30;99.90;;;;;;6117930;23;20796;-74
2022/12/22 08:34:10;;;;;;;4.95;1.67;;;11.30;99.90;;;;;;6117033;23;20191;-74
2022/12/22 08:36:40;;;;;;;2.63;1.33;;;11.30;99.90;;;;;;6119477;23;20187;-74
2022/12/22 08:39:08;;;;;;;5.57;2.08;;;11.30;99.90;;;;;;6120511;23;20222;-74
2022/12/22 08:41:50;;;;;;;3.88;1.50;;;11.20;99.90;;;;;;6116364;23;20263;-75
2022/12/22 08:44:20;;;;;;;2.55;1.38;;;11.10;99.90;;;;;;6119483;23;20223;-74
2022/12/22 08:46:47;;;;;;;2.53;1.40;;;11.10;99.90;;;;;;6117036;23;20266;-73
2022/12/22 08:49:16;;;;;;;3.83;1.67;;;11.00;99.90;;;;;;6120280;23;20225;-74
2022/12/22 08:51:44;;;;;;;2.75;1.55;;;11.00;99.90;;;;;;6123013;23;20659;-74
2022/12/22 08:54:12;;;;;;;1.95;1.48;;;11.00;99.90;;;;;;6120463;23;20277;-74
2022/12/22 08:56:39;;;;;;;5.65;1.35;;;10.90;99.90;;;;;;6119058;23;20253;-74
2022/12/22 08:59:08;;;;;;;4.53;1.73;;;11.00;99.90;;;;;;6117228;23;20271;-74
2022/12/22 09:01:37;;;;;;;3.70;1.58;;;11.00;99.90;;;;;;6119840;23;20622;-74
2022/12/22 09:04:05;;;;;;;3.95;1.60;;;11.00;99.90;;;;;;6117559;23;20291;-74
2022/12/22 09:06:34;;;;;;;3.30;1.60;;;11.10;99.90;;;;;;6116689;23;20194;-74
2022/12/22 09:09:04;;;;;;;5.95;1.60;;;11.20;99.90;;;;;;6117661;23;20266;-74
2022/12/22 09:11:32;;;;;;;5.25;1.80;;;11.20;99.90;;;;;;6116644;23;20310;-74
2022/12/22 09:14:02;;;;;;;7.13;1.65;;;11.30;99.90;;;;;;6116239;23;20266;-74
2022/12/22 09:16:31;;;;;;;2.95;1.63;;;11.40;99.90;;;;;;6162351;23;20232;-74
2022/12/22 09:18:58;;;;;;;3.58;1.30;;;11.50;99.90;;;;;;6114924;23;20215;-75
2022/12/22 09:21:26;;;;;;;5.20;1.20;;;11.50;99.90;;;;;;6116912;23;20186;-74
2022/12/22 09:23:56;;;;;;;6.63;1.90;;;11.50;99.90;;;;;;6117364;23;20187;-74
2022/12/22 09:26:25;;;;;;;7.75;2.17;;;11.50;99.90;;;;;;6117174;23;20223;-74
2022/12/22 09:28:53;;;;;;;5.57;1.67;;;11.40;99.90;;;;;;6119124;23;20286;-75
2022/12/22 09:31:21;;;;;;;3.65;1.50;;;11.20;99.90;;;;;;6120434;23;20302;-75
2022/12/22 09:33:48;;;;;;;6.40;1.80;;;11.00;99.90;;;;;;6118678;23;20604;-74
2022/12/22 09:36:18;;;;;;;5.07;2.10;;;10.90;99.90;;;;;;6119400;23;20218;-75
2022/12/22 09:38:45;;;;;;;4.28;1.33;;;10.90;99.90;;;;;;6125404;23;20343;-75
2022/12/22 09:41:19;;;;;;;6.90;1.60;;;10.80;99.90;;;;;;6122620;23;20203;-75
2022/12/22 09:43:47;;;;;;;5.03;1.60;;;10.80;99.90;;;;;;6121147;23;20195;-75
2022/12/22 09:46:21;;;;;;;6.55;1.85;;;10.80;99.90;;;;;;6124615;23;20215;-75
2022/12/22 09:48:48;;;;;;;5.05;1.60;;;10.70;99.90;;;;;;6121617;23;20188;-76
2022/12/22 09:51:17;;;;;;;3.22;1.63;;;10.70;99.90;;;;;;6184470;23;20245;-75
2022/12/22 09:53:46;;;;;;;4.90;1.55;;;10.60;99.90;;;;;;6130528;23;20195;-75
2022/12/22 09:56:17;;;;;;;7.28;2.13;;;10.60;99.90;;;;;;6127851;23;20561;-76
2022/12/22 09:58:46;;;;;;;3.17;1.65;;;10.50;99.90;;;;;;6131399;23;20270;-76
2022/12/22 10:01:32;;;;;;;5.28;2.10;;;10.50;99.90;;;;;;6129602;23;20198;-73
2022/12/22 10:04:05;;;;;;;3.58;1.80;;;10.50;99.90;;;;;;6121895;23;20307;-75
2022/12/22 10:06:38;;;;;;;5.70;1.90;;;10.40;99.90;;;;;;6117702;23;20687;-75
2022/12/22 10:09:15;;;;;;;3.30;1.05;;;10.50;99.90;;;;;;6104236;23;20590;-76
2022/12/22 10:11:51;;;;;;;4.10;1.85;;;10.10;99.90;;;;;;6112544;23;20217;-75
2022/12/22 10:14:19;;;;;;;5.13;1.60;;;10.40;99.90;;;;;;6117767;23;20644;-75
2022/12/22 10:16:46;;;;;;;4.97;1.40;;;10.40;99.90;;;;;;6118431;23;20222;-75
2022/12/22 10:19:15;;;;;;;3.40;1.42;;;10.30;99.90;;;;;;6118014;23;20293;-75
2022/12/22 10:21:42;;;;;;;5.43;1.85;;;10.30;99.90;;;;;;6119449;23;20190;-75
2022/12/22 10:24:18;;;;;;;3.25;1.40;;;10.30;99.90;;;;;;6115469;23;20262;-76
2022/12/22 10:26:45;;;;;;;4.85;1.60;;;10.30;99.90;;;;;;6117331;23;20270;-76
2022/12/22 10:29:17;;;;;;;5.35;1.60;;;10.30;99.90;;;;;;6108980;23;20603;-75
2022/12/22 10:31:58;;;;;;;6.05;1.40;;;10.20;99.90;;;;;;6114243;23;20256;-75
2022/12/22 10:34:25;;;;;;;5.05;1.27;;;10.20;99.90;;;;;;6117776;23;20188;-76
2022/12/22 10:36:58;;;;;;;3.83;1.38;;;10.20;99.90;;;;;;6116583;23;20277;-75
2022/12/22 10:39:31;;;;;;;3.40;1.40;;;10.20;99.90;;;;;;6113156;23;20261;-74
2022/12/22 10:42:01;;;;;;;4.03;1.30;;;10.10;99.90;;;;;;6112283;23;20206;-75
2022/12/22 10:44:33;;;;;;;2.60;1.30;;;10.10;99.90;;;;;;6116969;23;20188;-75
2022/12/22 10:47:11;;;;;;;5.65;1.65;;;10.10;99.90;;;;;;6116455;23;20194;-75
2022/12/22 10:49:40;;;;;;;2.90;1.23;;;10.10;99.90;;;;;;6116753;23;20195;-76
2022/12/22 10:52:12;;;;;;;3.70;1.60;;;10.10;99.90;;;;;;6114258;23;20250;-75
2022/12/22 10:54:43;;;;;;;3.38;1.20;;;10.10;99.90;;;;;;6118288;23;20336;-75
2022/12/22 10:57:29;;;;;;;2.75;1.23;;;10.20;99.90;;;;;;6117719;23;20292;-75
2022/12/22 11:00:01;;;;;;;3.40;1.42;;;10.20;99.90;;;;;;6113854;23;20191;-75
2022/12/22 11:02:36;;;;;;;5.05;1.50;;;10.20;99.90;;;;;;6117171;23;20184;-75
2022/12/22 11:05:06;;;;;;;2.80;1.40;;;10.20;99.90;;;;;;6117581;23;20282;-75
2022/12/22 11:07:36;;;;;;;3.40;1.23;;;10.30;99.90;;;;;;6116112;23;20206;-75
2022/12/22 11:10:16;;;;;;;2.30;1.00;;;10.60;99.90;;;;;;6117552;23;20310;-75
2022/12/22 11:13:08;;;;;;;3.00;1.20;;;10.40;99.90;;;;;;6113398;23;20222;-74
2022/12/22 11:15:45;;;;;;;3.15;1.40;;;10.50;99.90;;;;;;6116819;23;20215;-75
2022/12/22 11:18:30;;;;;;;1.75;1.33;;;10.50;99.90;;;;;;6163956;23;20199;-76
2022/12/22 11:21:18;;;;;;;3.35;1.20;;;10.60;99.90;;;;;;6042670;23;20833;-77
2022/12/22 11:24:00;;;;;;;2.60;1.20;;;10.90;99.90;;;;;;5932486;23;20191;-79
2022/12/22 11:26:36;;;;;;;2.47;1.10;;;10.50;99.90;;;;;;5940803;23;21168;-77
2022/12/22 11:29:24;;;;;;;1.63;0.90;;;10.80;99.90;;;;;;5970404;23;20326;-78
2022/12/22 11:32:06;;;;;;;2.40;1.00;;;11.20;99.90;;;;;;6114752;23;20624;-75
2022/12/22 11:34:48;;;;;;;1.17;0.80;;;11.00;99.90;;;;;;6117625;23;20637;-76
2022/12/22 11:37:31;;;;;;;1.33;0.75;;;11.10;99.90;;;;;;6112710;23;20332;-76
2022/12/22 11:40:10;;;;;;;2.95;1.00;;;11.20;99.90;;;;;;6118999;23;20265;-76
2022/12/22 11:42:54;;;;;;;4.13;1.45;;;11.30;99.90;;;;;;6091078;23;20187;-75
2022/12/22 11:45:41;;;;;;;1.75;0.90;;;11.30;99.90;;;;;;6114060;23;20219;-74
2022/12/22 11:48:33;;;;;;;2.78;0.70;;;11.40;99.90;;;;;;6114209;23;20274;-76
2022/12/22 11:51:13;;;;;;;1.85;0.82;;;11.50;99.90;;;;;;6115199;23;20250;-76
2022/12/22 11:54:12;;;;;;;2.00;0.82;;;11.60;99.90;;;;;;6119365;23;20257;-76
2022/12/22 11:56:41;;;;;;;1.67;0.75;;;11.60;99.90;;;;;;6116408;23;20262;-74
2022/12/22 11:59:26;;;;;;;2.05;1.00;;;11.70;99.90;;;;;;6115945;23;20195;-75
2022/12/22 12:02:12;;;;;;;1.80;0.90;;;11.70;99.90;;;;;;6115007;23;20657;-74
2022/12/22 12:05:03;;;;;;;4.68;1.27;;;11.80;99.90;;;;;;6117003;23;20195;-74
2022/12/22 12:07:35;;;;;;;1.60;0.80;;;11.80;99.90;;;;;;6112420;23;20556;-74
2022/12/22 12:10:15;;;;;;;1.73;1.00;;;11.80;99.90;;;;;;6118542;23;20195;-75
2022/12/22 12:12:52;;;;;;;1.30;0.98;;;11.80;99.90;;;;;;6140844;23;20241;-74
2022/12/22 12:15:28;;;;;;;2.78;1.35;;;11.80;99.90;;;;;;6117258;23;20237;-74
2022/12/22 12:18:24;;;;;;;1.40;0.90;;;11.80;99.90;;;;;;6115722;23;20404;-74
2022/12/22 12:21:02;;;;;;;3.03;0.90;;;11.80;99.90;;;;;;6116863;23;20210;-74
2022/12/22 12:23:49;;;;;;;2.50;1.00;;;11.80;99.90;;;;;;6115474;23;20270;-74
2022/12/22 12:26:21;;;;;;;2.15;0.77;;;12.00;99.90;;;;;;6117079;23;20201;-74
2022/12/22 12:28:59;;;;;;;1.58;0.90;;;12.00;99.90;;;;;;6118894;23;20188;-74
2022/12/22 12:31:32;;;;;;;1.80;0.80;;;12.10;99.90;;;;;;6117047;23;20199;-74
2022/12/22 12:34:01;;;;;;;1.42;1.02;;;12.30;99.90;;;;;;6115957;23;20211;-74
2022/12/22 12:36:40;;;;;;;2.10;0.90;;;12.30;99.90;;;;;;6120441;23;20198;-75
2022/12/22 12:39:14;;;;;;;1.60;0.90;;;12.30;99.90;;;;;;6119819;23;20191;-74
2022/12/22 12:41:51;;;;;;;3.17;0.98;;;12.40;99.90;;;;;;6118929;23;20316;-74
2022/12/22 12:44:23;;;;;;;1.23;0.63;;;12.40;99.90;;;;;;6117447;23;20194;-74
2022/12/22 12:47:23;;;;;;;1.17;0.70;;;12.30;99.90;;;;;;6119599;23;20207;-75
2022/12/22 12:50:30;;;;;;;0.93;0.70;;;12.20;99.90;;;;;;6118668;23;20195;-75
2022/12/22 12:53:07;;;;;;;3.00;0.98;;;12.20;99.90;;;;;;6114918;23;20207;-83
2022/12/22 12:55:53;;;;;;;1.98;0.90;;;12.20;99.90;;;;;;6118493;23;20193;-74
2022/12/22 12:58:50;;;;;;;1.70;0.80;;;12.30;99.90;;;;;;6119447;23;20244;-74
2022/12/22 13:01:54;;;;;;;2.53;1.17;;;12.20;99.90;;;;;;6118631;23;20337;-75
2022/12/22 13:05:04;;;;;;;2.28;0.90;;;12.20;99.90;;;;;;6115943;23;20755;-75
2022/12/22 13:08:13;;;;;;;2.70;1.30;;;12.20;99.90;;;;;;6094362;23;20196;-75
2022/12/22 13:10:45;;;;;;;2.28;1.00;;;12.20;99.90;;;;;;6119666;23;20187;-76
2022/12/22 13:13:29;;;;;;;2.03;0.88;;;12.10;99.90;;;;;;6116237;23;20546;-76
2022/12/22 13:16:22;;;;;;;2.00;1.05;;;12.10;99.90;;;;;;6117630;23;20240;-75
2022/12/22 13:18:50;;;;;;;2.50;0.80;;;12.10;99.90;;;;;;6119600;23;20298;-75
2022/12/22 13:21:25;;;;;;;2.35;0.80;;;12.10;99.90;;;;;;6119839;23;20424;-87
2022/12/22 13:23:59;;;;;;;1.35;0.95;;;12.10;99.90;;;;;;6115113;23;20267;-87
2022/12/22 13:26:32;;;;;;;2.67;0.90;;;12.10;99.90;;;;;;6122599;23;20191;-76
2022/12/22 13:29:02;;;;;;;1.90;1.60;;;12.10;99.90;;;;;;6123136;23;20266;-78
2022/12/22 13:31:33;;;;;;;3.67;1.38;;;12.10;99.90;;;;;;6120884;23;20518;-76
2022/12/22 13:34:07;;;;;;;1.23;0.88;;;12.10;99.90;;;;;;6113301;23;20212;-74
2022/12/22 13:36:36;;;;;;;1.52;1.10;;;12.00;99.90;;;;;;6118828;23;20185;-76
2022/12/22 13:39:05;;;;;;;1.85;1.00;;;12.00;99.90;;;;;;6117642;23;20262;-76
2022/12/22 13:41:34;;;;;;;1.93;0.90;;;12.00;99.90;;;;;;6116064;23;20195;-75
2022/12/22 13:44:07;;;;;;;2.40;0.80;;;12.20;99.90;;;;;;6115347;23;20442;-75
2022/12/22 13:46:35;;;;;;;1.50;0.80;;;12.20;99.90;;;;;;6119252;23;20198;-75
2022/12/22 13:49:06;;;;;;;1.93;0.90;;;12.20;99.90;;;;;;6109888;23;20764;-76
2022/12/22 13:51:36;;;;;;;2.70;1.00;;;12.20;99.90;;;;;;6117029;23;20426;-76
2022/12/22 13:54:13;;;;;;;3.45;0.98;;;12.20;99.90;;;;;;6113818;23;20215;-76
2022/12/22 13:56:44;;;;;;;2.13;1.00;;;12.10;99.90;;;;;;6117231;23;20199;-76
2022/12/22 13:59:26;;;;;;;2.87;0.97;;;12.10;99.90;;;;;;6114511;23;20188;-77
2022/12/22 14:01:59;;;;;;;2.70;1.25;;;12.10;99.90;;;;;;6118968;23;20918;-76
2022/12/22 14:04:27;;;;;;;1.80;0.90;;;12.00;99.90;;;;;;6118921;23;20283;-75
2022/12/22 14:06:54;;;;;;;2.45;1.10;;;12.00;99.90;;;;;;6121126;23;20195;-75
2022/12/22 14:09:25;;;;;;;2.22;0.98;;;11.90;99.90;;;;;;6114167;23;20693;-83
2022/12/22 14:12:06;;;;;;;1.83;1.10;;;11.90;99.90;;;;;;6116168;23;20274;-83
2022/12/22 14:14:37;;;;;;;2.97;0.80;;;11.90;99.90;;;;;;6116955;23;20260;-74
2022/12/22 14:17:15;;;;;;;4.78;1.20;;;11.80;99.90;;;;;;6116445;23;20203;-74
2022/12/22 14:19:42;;;;;;;4.03;1.17;;;11.80;99.90;;;;;;6115823;23;20191;-74
2022/12/22 14:22:13;;;;;;;4.82;1.55;;;11.80;99.90;;;;;;6118773;23;20191;-74
2022/12/22 14:24:44;;;;;;;3.53;1.25;;;11.80;99.90;;;;;;6112346;23;20183;-75
2022/12/22 14:27:22;;;;;;;3.97;1.52;;;11.80;99.90;;;;;;6116759;23;20644;-75
2022/12/22 14:29:50;;;;;;;2.55;1.13;;;11.80;99.90;;;;;;6115399;23;20236;-78
2022/12/22 14:32:39;;;;;;;3.72;1.13;;;11.70;99.90;;;;;;6117068;23;20184;-75
2022/12/22 14:35:24;;;;;;;4.93;1.40;;;11.80;99.90;;;;;;6113034;23;20195;-75
2022/12/22 14:37:54;;;;;;;5.55;1.58;;;11.80;99.90;;;;;;6115979;23;20192;-75
2022/12/22 14:40:32;;;;;;;6.20;1.80;;;11.80;99.90;;;;;;6113128;23;20311;-75
2022/12/22 14:43:04;;;;;;;5.35;1.83;;;11.80;99.90;;;;;;6116154;23;20547;-75
2022/12/22 14:45:31;;;;;;;5.05;1.60;;;11.80;99.90;;;;;;6113548;23;20254;-75
2022/12/22 14:47:58;;;;;;;5.35;2.00;;;11.90;99.90;;;;;;6123257;23;20332;-75
2022/12/22 14:50:28;;;;;;;6.70;1.90;;;11.90;99.90;;;;;;6119013;23;20263;-76
2022/12/22 14:52:56;;;;;;;5.53;2.00;;;11.80;99.90;;;;;;6141741;23;20269;-75
2022/12/22 14:55:29;;;;;;;4.68;1.75;;;11.80;99.90;;;;;;6111549;23;20262;-75
2022/12/22 14:58:03;;;;;;;4.40;1.85;;;11.80;99.90;;;;;;6116636;23;20279;-75
2022/12/22 15:00:34;;;;;;;6.53;1.67;;;11.80;99.90;;;;;;6115469;23;20274;-76
2022/12/22 15:03:04;;;;;;;5.95;2.00;;;11.80;99.90;;;;;;6113260;23;20206;-75
2022/12/22 15:05:35;;;;;;;4.78;1.80;;;11.80;99.90;;;;;;6125039;23;20254;-76
2022/12/22 15:08:03;;;;;;;5.45;2.30;;;11.80;99.90;;;;;;6135269;23;20269;-75
2022/12/22 15:10:41;;;;;;;7.60;2.25;;;11.80;99.90;;;;;;6118150;23;20191;-75
2022/12/22 15:13:19;;;;;;;5.03;1.70;;;11.80;99.90;;;;;;6118101;23;20282;-75
2022/12/22 15:15:46;;;;;;;6.72;2.13;;;11.80;99.90;;;;;;6116790;23;20557;-76
2022/12/22 15:18:15;;;;;;;7.63;2.13;;;11.70;99.90;;;;;;6116615;23;20296;-75
2022/12/22 15:20:42;;;;;;;3.92;1.77;;;11.70;99.90;;;;;;6124215;23;20187;-74
2022/12/22 15:23:12;;;;;;;7.82;2.00;;;11.70;99.90;;;;;;6145871;23;20240;-77
2022/12/22 15:25:40;;;;;;;4.93;2.17;;;11.70;99.90;;;;;;6124807;23;20245;-75
2022/12/22 15:28:07;;;;;;;5.47;1.85;;;11.70;99.90;;;;;;6107699;23;20188;-74
2022/12/22 15:30:37;;;;;;;4.75;1.85;;;11.70;99.90;;;;;;6118963;23;20291;-75
2022/12/22 15:33:09;;;;;;;5.72;2.30;;;11.70;99.90;;;;;;6106400;23;20210;-75
2022/12/22 15:35:37;;;;;;;8.77;2.60;;;11.70;99.90;;;;;;6113076;23;20221;-76
2022/12/22 15:38:11;;;;;;;5.88;2.20;;;11.70;99.90;;;;;;6120013;23;20195;-77
2022/12/22 15:40:38;;;;;;;6.70;2.60;;;11.70;99.90;;;;;;6126119;23;20191;-78
2022/12/22 15:43:06;;;;;;;3.28;1.83;;;11.70;99.90;;;;;;6119892;23;20234;-76
2022/12/22 15:45:34;;;;;;;7.00;2.40;;;11.70;99.90;;;;;;6113158;23;20323;-78
2022/12/22 15:48:04;;;;;;;9.55;2.47;;;11.70;99.90;;;;;;6113687;23;20194;-76
2022/12/22 15:50:35;;;;;;;6.97;2.53;;;11.70;99.90;;;;;;6119130;23;20566;-75
2022/12/22 15:53:04;;;;;;;5.25;2.03;;;11.60;99.90;;;;;;6118220;23;20207;-78
2022/12/22 15:55:33;;;;;;;4.82;2.05;;;11.60;99.90;;;;;;6115683;23;20275;-81
2022/12/22 15:58:03;;;;;;;5.05;2.10;;;11.60;99.90;;;;;;6117661;23;20621;-79
2022/12/22 16:00:30;;;;;;;6.80;2.40;;;11.60;99.90;;;;;;6118430;23;20190;-79
2022/12/22 16:02:57;;;;;;;8.13;2.45;;;11.60;99.90;;;;;;6121134;23;20721;-75
2022/12/22 16:05:25;;;;;;;4.97;2.20;;;11.50;99.90;;;;;;6119205;23;20377;-75
2022/12/22 16:07:58;;;;;;;5.25;2.15;;;11.50;99.90;;;;;;6120266;23;20275;-76
2022/12/22 16:10:28;;;;;;;7.95;2.55;;;11.50;99.90;;;;;;6124308;23;20190;-75
2022/12/22 16:13:00;;;;;;;7.88;2.10;;;11.40;99.90;;;;;;6124738;23;20294;-77
2022/12/22 16:15:29;;;;;;;5.22;2.08;;;11.40;99.90;;;;;;6126766;23;20239;-78
2022/12/22 16:17:56;;;;;;;5.53;1.85;;;11.40;99.90;;;;;;6120987;23;20279;-77
2022/12/22 16:20:26;;;;;;;4.72;2.10;;;11.40;99.90;;;;;;6123694;23;20191;-77
2022/12/22 16:22:53;;;;;;;7.25;2.45;;;11.30;99.90;;;;;;6119929;23;20228;-77
2022/12/22 16:25:26;;;;;;;7.95;2.58;;;11.30;99.90;;;;;;6124380;23;20250;-78
2022/12/22 16:27:55;;;;;;;4.00;1.70;;;11.30;99.90;;;;;;6121646;23;20196;-79
2022/12/22 16:30:23;;;;;;;6.30;1.80;;;11.30;99.90;;;;;;6134619;23;20211;-77
2022/12/22 16:32:51;;;;;;;6.30;1.85;;;11.20;99.90;;;;;;6130406;23;20274;-76
2022/12/22 16:35:21;;;;;;;4.70;2.15;;;11.20;99.90;;;;;;6119926;23;20564;-76
2022/12/22 16:37:51;;;;;;;9.32;2.40;;;11.20;99.90;;;;;;6119144;23;20608;-77
2022/12/22 16:40:19;;;;;;;4.88;2.17;;;11.10;99.90;;;;;;6113186;23;20274;-77
2022/12/22 16:42:50;;;;;;;8.57;2.63;;;11.10;99.90;;;;;;6111285;23;20199;-78
2022/12/22 16:45:21;;;;;;;4.38;1.70;;;11.10;99.90;;;;;;6128353;23;20908;-77
2022/12/22 16:47:51;;;;;;;4.10;1.95;;;11.10;99.90;;;;;;6124688;23;20246;-78
2022/12/22 16:50:21;;;;;;;6.35;2.40;;;11.00;99.90;;;;;;6123155;23;20189;-77
2022/12/22 16:52:50;;;;;;;6.63;2.30;;;11.00;99.90;;;;;;6123012;23;20652;-77